Time;durP1;ratioP1;P1;durP2;ratioP2;P2;SDS_P1;SDS_P2;PMS_P1;PMS_P2;Temp;Humidity;BMP_temperature;BMP_pressure;BME280_temperature;BME280_humidity;BME280_pressure;Samples;Min_cycle;Max_cycle;Signal;HPM_P1;HPM_P2
2021/06/26 00:01:25;;;;;;;1.20;1.10;;;;;;;18.59;68.85;99515.47;5021459;28;20317;-83
2021/06/26 00:03:52;;;;;;;0.90;0.90;;;;;;;18.51;68.91;99497.03;5021733;28;20257;-87
2021/06/26 00:06:19;;;;;;;1.43;1.33;;;;;;;18.74;68.16;99507.31;5054115;28;20619;-86
2021/06/26 00:08:46;;;;;;;1.70;0.97;;;;;;;18.76;67.93;99509.72;5055510;28;20226;-87
2021/06/26 00:11:13;;;;;;;0.93;0.93;;;;;;;18.75;67.54;99506.22;5021407;28;20252;-84
2021/06/26 00:13:39;;;;;;;0.80;0.80;;;;;;;18.84;67.14;99514.59;5038174;28;20536;-81
2021/06/26 00:16:06;;;;;;;0.77;0.77;;;;;;;18.81;67.19;99515.13;5053887;28;20637;-87
2021/06/26 00:18:33;;;;;;;1.27;0.90;;;;;;;18.89;66.60;99509.16;5038078;28;20241;-85
2021/06/26 00:20:59;;;;;;;1.00;1.00;;;;;;;18.91;65.75;99515.94;5054322;28;20312;-83
2021/06/26 00:23:26;;;;;;;0.70;0.70;;;;;;;18.91;65.33;99531.41;5054658;28;20226;-86
2021/06/26 00:26:07;;;;;;;1.80;0.87;;;;;;;19.00;64.36;99518.06;5054363;28;20253;-86
2021/06/26 00:28:34;;;;;;;1.60;0.70;;;;;;;19.08;63.83;99515.63;5054299;28;20305;-88
2021/06/26 00:31:01;;;;;;;0.70;0.70;;;;;;;19.14;63.11;99519.09;5037778;28;20643;-79
2021/06/26 00:33:28;;;;;;;1.03;0.83;;;;;;;19.18;62.92;99523.69;5055227;28;20222;-81
2021/06/26 00:35:55;;;;;;;0.80;0.80;;;;;;;19.21;62.58;99522.34;5054545;28;20229;-82
2021/06/26 00:38:22;;;;;;;0.80;0.77;;;;;;;19.30;62.39;99526.91;5054910;28;20226;-85
2021/06/26 00:40:48;;;;;;;1.20;0.60;;;;;;;19.26;62.61;99522.31;5037921;28;20652;-84
2021/06/26 00:43:17;;;;;;;0.87;0.70;;;;;;;19.28;62.06;99526.38;5054030;28;20235;-82
2021/06/26 00:45:45;;;;;;;0.77;0.73;;;;;;;19.23;62.49;99529.09;5037915;28;20233;-88
2021/06/26 00:48:12;;;;;;;1.43;0.70;;;;;;;19.31;61.89;99533.16;5053707;28;20229;-80
2021/06/26 00:50:38;;;;;;;1.33;0.80;;;;;;;19.39;61.88;99540.72;5037623;28;20701;-86
2021/06/26 00:53:05;;;;;;;0.60;0.60;;;;;;;19.35;61.80;99536.94;5054163;28;20226;-87
2021/06/26 00:55:32;;;;;;;1.07;0.80;;;;;;;19.47;61.65;99547.50;5054238;28;20226;-81
2021/06/26 00:58:01;;;;;;;0.77;0.70;;;;;;;19.42;61.76;99542.88;5054115;28;20647;-81
2021/06/26 01:00:32;;;;;;;0.70;0.70;;;;;;;19.40;62.03;99560.56;5053971;28;20312;-87
2021/06/26 01:03:01;;;;;;;1.97;0.70;;;;;;;19.48;61.75;99547.22;5037757;28;20309;-84
2021/06/26 01:05:28;;;;;;;1.00;0.90;;;;;;;19.47;61.86;99548.31;5021167;28;20566;-82
2021/06/26 01:07:55;;;;;;;0.63;0.63;;;;;;;19.49;61.88;99542.59;5037534;28;20231;-84
2021/06/26 01:10:22;;;;;;;0.70;0.70;;;;;;;19.54;61.83;99548.84;5020827;28;20233;-87
2021/06/26 01:12:49;;;;;;;0.80;0.80;;;;;;;19.38;62.17;99546.44;5040958;28;20288;-86
2021/06/26 01:15:17;;;;;;;0.87;0.87;;;;;;;19.36;62.52;99538.56;5057384;28;20232;-88
2021/06/26 01:17:44;;;;;;;1.10;0.80;;;;;;;19.30;62.93;99539.69;5057185;28;20249;-82
2021/06/26 01:20:12;;;;;;;1.13;1.03;;;;;;;19.38;62.91;99549.13;5057134;28;20636;-86
2021/06/26 01:22:44;;;;;;;1.27;0.90;;;;;;;19.41;63.36;99543.16;5057438;28;20625;-85
2021/06/26 01:25:16;;;;;;;1.57;1.03;;;;;;;19.38;63.27;99547.25;5057212;28;20537;-83
2021/06/26 01:27:43;;;;;;;1.23;0.90;;;;;;;19.29;63.77;99538.88;5058280;28;20256;-84
2021/06/26 01:30:13;;;;;;;2.50;1.10;;;;;;;19.31;63.79;99539.41;5040435;28;20246;-86
2021/06/26 01:32:40;;;;;;;0.80;0.80;;;;;;;19.19;64.36;99536.19;5057168;28;20221;-85
2021/06/26 01:35:08;;;;;;;1.10;1.10;;;;;;;19.21;64.12;99538.63;5057875;28;20236;-85
2021/06/26 01:37:39;;;;;;;1.47;0.90;;;;;;;19.29;63.98;99544.28;5057137;28;20229;-85
2021/06/26 01:40:07;;;;;;;1.00;1.00;;;;;;;19.17;64.65;99551.97;5040489;28;20229;-87
2021/06/26 01:42:34;;;;;;;1.00;1.00;;;;;;;19.05;65.26;99553.34;5056932;28;20308;-84
2021/06/26 01:45:01;;;;;;;1.20;1.20;;;;;;;19.11;65.01;99552.25;5022762;28;20629;-85
2021/06/26 01:47:27;;;;;;;1.10;1.00;;;;;;;19.13;64.89;99545.44;5056324;28;20275;-87
2021/06/26 01:49:54;;;;;;;1.10;1.00;;;;;;;19.06;65.12;99541.41;5056608;28;20234;-84
2021/06/26 01:52:21;;;;;;;1.00;1.00;;;;;;;19.03;65.35;99542.78;5039475;28;20313;-85
2021/06/26 01:54:48;;;;;;;1.10;1.00;;;;;;;19.02;65.48;99565.59;5056476;28;20236;-85
2021/06/26 01:57:14;;;;;;;1.43;1.00;;;;;;;19.11;65.29;99560.41;5039842;28;20226;-87
2021/06/26 01:59:41;;;;;;;1.20;1.10;;;;;;;18.97;65.90;99553.91;5039961;28;20229;-84
2021/06/26 02:02:08;;;;;;;1.10;1.03;;;;;;;18.86;66.37;99563.97;5055954;28;20308;-88
2021/06/26 02:04:35;;;;;;;1.33;0.93;;;;;;;18.92;66.52;99560.19;5056283;28;20218;-85
2021/06/26 02:07:02;;;;;;;1.43;1.00;;;;;;;18.97;66.11;99552.03;5056589;28;20331;-88
2021/06/26 02:09:28;;;;;;;1.00;1.00;;;;;;;18.92;66.29;99558.28;5039816;28;20237;-87
2021/06/26 02:11:55;;;;;;;1.53;1.27;;;;;;;18.96;66.53;99553.09;5057167;28;20761;-83
2021/06/26 02:14:22;;;;;;;1.60;1.10;;;;;;;18.88;66.83;99564.53;5039156;28;20252;-87
2021/06/26 02:16:49;;;;;;;1.13;1.00;;;;;;;18.95;66.91;99566.94;5056184;28;20253;-87
2021/06/26 02:19:16;;;;;;;1.00;0.90;;;;;;;19.00;66.72;99562.31;5055790;28;20253;-82
2021/06/26 02:21:42;;;;;;;1.60;1.20;;;;;;;18.96;67.06;99565.88;5039042;28;20363;-84
2021/06/26 02:24:09;;;;;;;2.70;1.20;;;;;;;18.83;67.15;99550.97;5038812;28;20225;-81
2021/06/26 02:26:36;;;;;;;2.03;1.30;;;;;;;18.87;67.41;99552.88;5039512;28;20252;-86
2021/06/26 02:29:03;;;;;;;1.43;1.20;;;;;;;18.87;67.67;99554.75;5056997;28;20633;-87
2021/06/26 02:31:30;;;;;;;2.20;1.10;;;;;;;18.76;68.02;99556.69;5055798;28;20228;-82
2021/06/26 02:33:57;;;;;;;1.10;1.10;;;;;;;18.73;68.21;99568.09;5022941;28;20256;-83
2021/06/26 02:36:23;;;;;;;1.27;1.13;;;;;;;18.76;68.09;99566.72;5055304;28;20234;-84
2021/06/26 02:38:50;;;;;;;1.30;1.20;;;;;;;18.77;68.43;99571.06;5055693;28;20232;-86
2021/06/26 02:41:21;;;;;;;1.43;1.33;;;;;;;18.73;68.65;99570.00;5039155;28;20245;-88
2021/06/26 02:43:49;;;;;;;1.60;1.30;;;;;;;18.78;68.35;99572.69;5039199;28;20328;-86
2021/06/26 02:46:16;;;;;;;1.20;1.20;;;;;;;18.69;68.73;99567.03;5022390;28;20245;-88
2021/06/26 02:48:43;;;;;;;1.53;1.10;;;;;;;18.66;68.70;99569.47;5022583;28;20238;-86
2021/06/26 02:51:10;;;;;;;1.30;1.20;;;;;;;18.63;69.07;99570.00;5022680;28;20222;-84
2021/06/26 02:53:36;;;;;;;2.80;1.30;;;;;;;18.70;68.75;99568.66;5038704;28;20230;-81
2021/06/26 02:56:03;;;;;;;1.40;1.10;;;;;;;18.60;69.22;99568.66;5055134;28;20534;-83
2021/06/26 02:58:30;;;;;;;2.33;1.30;;;;;;;18.70;68.99;99562.41;5038639;28;20225;-86
2021/06/26 03:00:57;;;;;;;1.70;1.40;;;;;;;18.69;68.96;99577.88;5038837;28;20308;-86
2021/06/26 03:03:23;;;;;;;1.40;1.33;;;;;;;18.72;68.89;99563.75;5039012;28;20275;-87
2021/06/26 03:05:50;;;;;;;1.10;1.10;;;;;;;18.71;68.96;99570.25;5038777;28;20234;-86
2021/06/26 03:08:17;;;;;;;1.40;1.30;;;;;;;18.75;69.31;99587.66;5054888;28;20241;-85
2021/06/26 03:10:44;;;;;;;2.97;1.30;;;;;;;18.78;69.03;99569.97;5054947;28;20225;-86
2021/06/26 03:13:11;;;;;;;1.40;1.30;;;;;;;18.88;68.98;99578.94;5054848;28;20600;-86
2021/06/26 03:15:37;;;;;;;1.67;1.40;;;;;;;18.94;68.38;99578.91;5038718;28;20279;-85
2021/06/26 03:18:04;;;;;;;2.30;1.40;;;;;;;18.92;68.81;99593.56;5054749;28;20574;-86
2021/06/26 03:20:31;;;;;;;2.10;1.30;;;;;;;18.99;68.96;99584.34;5054892;28;20313;-87
2021/06/26 03:22:58;;;;;;;1.40;1.30;;;;;;;18.92;69.02;99588.16;5054764;28;20248;-84
2021/06/26 03:25:25;;;;;;;2.73;1.37;;;;;;;19.00;69.06;99596.81;5054971;28;20666;-80
2021/06/26 03:27:52;;;;;;;1.70;1.60;;;;;;;18.94;69.31;99603.34;5055704;28;20494;-85
2021/06/26 03:30:19;;;;;;;2.20;1.40;;;;;;;19.00;68.90;99591.38;5054573;28;20309;-84
2021/06/26 03:32:46;;;;;;;1.50;1.40;;;;;;;19.00;69.14;99585.94;5054627;28;20229;-78
2021/06/26 03:35:13;;;;;;;1.77;1.67;;;;;;;19.08;68.84;99588.94;5053500;28;20225;-82
2021/06/26 03:37:41;;;;;;;1.17;1.17;;;;;;;19.14;68.61;99589.69;5038168;28;20229;-82
2021/06/26 03:40:08;;;;;;;4.10;1.33;;;;;;;19.17;68.72;99598.13;5036718;28;20247;-81
2021/06/26 03:42:36;;;;;;;1.60;1.50;;;;;;;19.25;68.40;99597.56;5054575;28;20225;-88
2021/06/26 03:45:04;;;;;;;3.40;1.50;;;;;;;19.39;67.91;99600.50;5021067;28;20582;-84
2021/06/26 03:47:31;;;;;;;1.73;1.50;;;;;;;19.40;67.69;99590.44;5038165;28;20234;-79
2021/06/26 03:49:58;;;;;;;3.53;1.70;;;;;;;19.47;67.51;99602.66;5054622;28;20259;-84
2021/06/26 03:52:25;;;;;;;1.70;1.60;;;;;;;19.47;67.19;99593.69;5052613;28;20263;-88
2021/06/26 03:54:51;;;;;;;1.50;1.40;;;;;;;19.45;67.63;99604.84;5053143;28;20709;-80
2021/06/26 03:57:18;;;;;;;3.20;1.60;;;;;;;19.55;67.36;99604.00;5054998;28;20237;-81
2021/06/26 03:59:46;;;;;;;2.70;1.30;;;;;;;19.58;66.62;99606.97;5054714;28;20233;-81
2021/06/26 04:02:13;;;;;;;1.70;1.60;;;;;;;19.67;66.76;99618.06;5037953;28;20232;-87
2021/06/26 04:04:40;;;;;;;2.10;1.67;;;;;;;19.56;67.03;99611.03;5021589;28;20253;-87
2021/06/26 04:07:07;;;;;;;2.80;1.43;;;;;;;19.56;67.21;99608.31;5054681;28;20223;-84
2021/06/26 04:09:33;;;;;;;1.70;1.60;;;;;;;19.89;65.63;99606.78;5054459;28;20229;-87
2021/06/26 04:12:00;;;;;;;3.17;1.83;;;;;;;19.95;65.59;99608.38;5054408;28;20690;-85
2021/06/26 04:14:27;;;;;;;2.13;1.37;;;;;;;20.02;65.32;99623.28;5037753;28;20249;-85
2021/06/26 04:16:54;;;;;;;2.13;1.50;;;;;;;19.87;65.73;99615.25;5037974;28;20237;-81
2021/06/26 04:19:20;;;;;;;1.50;1.40;;;;;;;19.86;65.79;99629.09;5054335;28;20579;-85
2021/06/26 04:21:47;;;;;;;1.50;1.40;;;;;;;19.74;66.27;99626.72;5037804;28;20332;-84
2021/06/26 04:24:14;;;;;;;2.03;1.33;;;;;;;19.66;66.55;99614.53;5054310;28;20270;-81
2021/06/26 04:26:40;;;;;;;2.00;1.20;;;;;;;19.57;66.84;99605.31;5037792;28;20246;-81
2021/06/26 04:29:07;;;;;;;1.50;1.40;;;;;;;19.57;67.06;99609.94;5037621;28;20272;-84
2021/06/26 04:31:34;;;;;;;2.37;1.40;;;;;;;20.36;65.17;99656.00;5037502;28;20226;-80
2021/06/26 04:34:01;;;;;;;1.43;1.30;;;;;;;21.69;60.33;99717.19;5054044;28;20227;-78
2021/06/26 04:36:28;;;;;;;1.43;1.33;;;;;;;22.96;55.92;99712.69;5037615;28;20233;-85
2021/06/26 04:38:54;;;;;;;3.10;1.20;;;;;;;23.90;52.95;99700.28;5021428;28;20249;-83
2021/06/26 04:41:22;;;;;;;1.50;1.40;;;;;;;23.72;52.86;99619.16;5037925;28;20224;-81
2021/06/26 04:43:49;;;;;;;3.30;1.70;;;;;;;22.86;55.41;99609.09;5053946;28;20810;-81
2021/06/26 04:46:16;;;;;;;3.73;1.23;;;;;;;22.53;56.48;99611.00;5056918;28;20232;-82
2021/06/26 04:48:43;;;;;;;2.10;1.30;;;;;;;22.26;57.50;99611.69;5058022;28;20310;-79
2021/06/26 04:51:11;;;;;;;1.23;1.23;;;;;;;21.98;58.26;99607.22;5041518;28;20233;-85
2021/06/26 04:53:40;;;;;;;1.20;1.20;;;;;;;22.08;57.96;99605.13;5041339;28;20323;-78
2021/06/26 04:56:07;;;;;;;2.10;1.40;;;;;;;21.87;58.52;99601.06;5040992;28;20248;-86
2021/06/26 04:58:34;;;;;;;1.17;1.17;;;;;;;21.94;58.32;99590.63;5041339;28;20246;-86
2021/06/26 05:01:01;;;;;;;1.97;1.30;;;;;;;21.90;58.44;99586.81;5041321;28;20238;-85
2021/06/26 05:03:28;;;;;;;1.57;1.33;;;;;;;22.07;57.96;99597.28;5058050;28;20225;-85
2021/06/26 05:05:55;;;;;;;1.53;1.33;;;;;;;22.10;57.12;99602.13;5041445;28;20226;-83
2021/06/26 05:08:22;;;;;;;3.03;1.47;;;;;;;22.19;57.02;99595.72;5040958;28;20236;-85
2021/06/26 05:10:49;;;;;;;1.60;1.33;;;;;;;22.32;57.35;99602.31;5041388;28;20593;-87
2021/06/26 05:13:16;;;;;;;2.20;1.60;;;;;;;22.48;57.03;99616.53;5041003;28;20253;-83
2021/06/26 05:15:44;;;;;;;1.50;1.40;;;;;;;22.49;57.00;99610.75;5024965;28;20245;-82
2021/06/26 05:18:11;;;;;;;1.73;1.40;;;;;;;22.65;56.76;99611.31;5024189;28;20316;-82
2021/06/26 05:20:39;;;;;;;1.30;1.30;;;;;;;22.74;56.33;99606.84;5024526;28;20635;-84
2021/06/26 05:23:16;;;;;;;1.57;1.47;;;;;;;22.84;56.09;99620.31;5024539;28;20254;-86
2021/06/26 05:25:43;;;;;;;1.50;1.40;;;;;;;22.86;55.47;99604.44;5040634;28;20638;-84
2021/06/26 05:28:11;;;;;;;1.90;1.40;;;;;;;23.00;54.93;99616.22;5056896;28;20259;-83
2021/06/26 05:30:38;;;;;;;2.70;1.40;;;;;;;23.10;55.18;99607.78;5040705;28;20254;-82
2021/06/26 05:33:06;;;;;;;1.50;1.40;;;;;;;23.12;55.04;99616.50;5040685;28;20283;-81
2021/06/26 05:35:33;;;;;;;1.57;1.47;;;;;;;23.11;54.74;99623.09;5024630;28;20232;-85
2021/06/26 05:38:00;;;;;;;1.67;1.40;;;;;;;22.97;55.02;99611.31;5041028;28;20228;-87
2021/06/26 05:40:27;;;;;;;3.00;1.40;;;;;;;23.13;54.88;99611.88;5040573;28;20230;-84
2021/06/26 05:42:54;;;;;;;2.80;1.70;;;;;;;23.23;54.95;99608.94;5056918;28;20229;-86
2021/06/26 05:45:21;;;;;;;1.53;1.43;;;;;;;23.23;53.82;99608.94;5040264;28;20240;-82
2021/06/26 05:47:48;;;;;;;1.67;1.57;;;;;;;23.30;54.10;99595.66;5023962;28;20244;-86
2021/06/26 05:50:15;;;;;;;2.00;1.63;;;;;;;23.43;53.36;99603.03;5040006;28;20590;-85
2021/06/26 05:52:50;;;;;;;1.77;1.67;;;;;;;23.35;53.45;99597.47;5056746;28;20698;-83
2021/06/26 05:55:18;;;;;;;1.50;1.40;;;;;;;23.31;53.92;99588.28;5023798;28;20322;-83
2021/06/26 05:57:45;;;;;;;1.87;1.77;;;;;;;23.43;53.86;99604.97;5039181;28;20223;-83
2021/06/26 06:00:14;;;;;;;1.63;1.53;;;;;;;23.38;54.15;99594.13;5039892;28;20223;-85
2021/06/26 06:02:43;;;;;;;2.17;1.80;;;;;;;23.39;53.98;99602.03;5024050;28;20354;-85
2021/06/26 06:05:12;;;;;;;3.10;1.93;;;;;;;23.41;53.21;99596.28;5056602;28;20233;-78
2021/06/26 06:07:43;;;;;;;2.10;2.00;;;;;;;23.48;53.10;99591.22;5040295;28;20607;-85
2021/06/26 06:10:16;;;;;;;1.87;1.77;;;;;;;23.49;53.01;99590.13;5039965;28;20676;-80
2021/06/26 06:12:43;;;;;;;2.07;1.87;;;;;;;23.38;53.68;99586.75;5023143;28;20647;-80
2021/06/26 06:15:12;;;;;;;2.00;1.90;;;;;;;23.69;52.95;99587.78;5056086;28;20228;-82
2021/06/26 06:17:39;;;;;;;2.43;2.30;;;;;;;23.67;52.88;99572.75;5023530;28;20237;-85
2021/06/26 06:20:07;;;;;;;2.20;2.07;;;;;;;23.72;53.29;99586.34;5022862;28;20232;-83
2021/06/26 06:22:34;;;;;;;2.30;2.20;;;;;;;23.84;52.91;99583.91;5039797;28;20249;-83
2021/06/26 06:25:05;;;;;;;2.30;2.20;;;;;;;23.72;53.12;99583.59;5056252;28;20590;-83
2021/06/26 06:27:33;;;;;;;2.90;2.38;;;;;;;23.72;52.54;99569.09;5040135;28;20229;-81
2021/06/26 06:30:00;;;;;;;2.47;2.23;;;;;;;23.68;52.97;99569.72;5056218;28;20232;-80
2021/06/26 06:32:27;;;;;;;2.53;2.33;;;;;;;23.77;52.97;99575.28;5054793;28;20642;-84
2021/06/26 06:34:54;;;;;;;2.70;2.50;;;;;;;23.77;53.16;99588.97;5037900;28;20229;-80
2021/06/26 06:37:20;;;;;;;2.70;2.20;;;;;;;23.98;52.89;99587.38;5054907;28;20256;-81
2021/06/26 06:39:47;;;;;;;3.65;2.30;;;;;;;24.04;52.02;99568.91;5038767;28;20618;-85
2021/06/26 06:42:14;;;;;;;2.55;2.35;;;;;;;24.06;52.04;99569.44;5037656;28;20308;-82
2021/06/26 06:44:40;;;;;;;2.53;2.42;;;;;;;24.36;51.78;99578.84;5037671;28;20226;-80
2021/06/26 06:47:07;;;;;;;2.65;2.45;;;;;;;24.44;51.63;99570.72;5054075;28;20231;-80
2021/06/26 06:49:34;;;;;;;2.90;2.58;;;;;;;24.46;51.80;99578.59;5037579;28;20237;-79
2021/06/26 06:52:01;;;;;;;2.80;2.60;;;;;;;24.33;51.42;99565.78;5053973;28;20295;-81
2021/06/26 06:54:28;;;;;;;2.95;2.70;;;;;;;24.49;51.58;99575.25;5038145;28;20221;-79
2021/06/26 06:56:54;;;;;;;2.70;2.50;;;;;;;24.64;51.36;99565.81;5038555;28;20225;-81
2021/06/26 06:59:21;;;;;;;4.03;2.50;;;;;;;24.48;50.96;99573.63;5038779;28;20321;-81
2021/06/26 07:01:48;;;;;;;2.65;2.53;;;;;;;24.24;50.58;99567.66;5022248;28;20255;-83
2021/06/26 07:04:15;;;;;;;2.58;2.47;;;;;;;24.29;50.97;99581.22;5054317;28;20232;-84
2021/06/26 07:06:41;;;;;;;3.63;2.92;;;;;;;24.46;50.74;99590.34;5038774;28;20236;-83
2021/06/26 07:09:08;;;;;;;3.08;2.80;;;;;;;24.67;50.90;99582.44;5038529;28;20233;-79
2021/06/26 07:11:35;;;;;;;3.00;2.80;;;;;;;24.71;50.34;99567.00;5054487;28;20640;-81
2021/06/26 07:14:02;;;;;;;2.85;2.65;;;;;;;24.80;50.56;99580.75;5037858;28;20225;-79
2021/06/26 07:16:28;;;;;;;3.65;2.50;;;;;;;24.73;49.71;99581.19;5021978;28;20221;-83
2021/06/26 07:18:55;;;;;;;2.08;1.98;;;;;;;24.63;49.43;99581.47;5038167;28;20620;-81
2021/06/26 07:21:22;;;;;;;1.98;1.88;;;;;;;24.71;50.17;99599.88;5021847;28;20312;-83
2021/06/26 07:23:49;;;;;;;2.38;2.28;;;;;;;24.91;49.54;99587.59;5037914;28;20279;-83
2021/06/26 07:26:16;;;;;;;2.17;2.00;;;;;;;25.07;48.50;99587.97;5053907;28;20230;-81
2021/06/26 07:28:42;;;;;;;2.28;2.17;;;;;;;25.17;48.22;99583.03;5038066;28;20233;-81
2021/06/26 07:31:10;;;;;;;2.20;2.10;;;;;;;25.16;49.16;99589.63;5054093;28;20222;-82
2021/06/26 07:33:37;;;;;;;2.00;1.90;;;;;;;25.35;48.16;99583.91;5037508;28;20262;-82
2021/06/26 07:36:04;;;;;;;1.85;1.75;;;;;;;25.39;47.90;99588.44;5053875;28;20222;-79
2021/06/26 07:38:31;;;;;;;2.50;1.90;;;;;;;25.10;47.97;99574.47;5021246;28;20241;-77
2021/06/26 07:40:58;;;;;;;1.80;1.70;;;;;;;25.31;46.93;99578.25;5053987;28;20233;-77
2021/06/26 07:43:25;;;;;;;2.40;1.90;;;;;;;25.20;47.55;99582.41;5053890;28;20598;-79
2021/06/26 07:45:53;;;;;;;1.75;1.65;;;;;;;25.33;47.09;99576.00;5054132;28;20224;-79
2021/06/26 07:48:20;;;;;;;2.05;1.88;;;;;;;25.37;47.44;99587.97;5020799;28;20550;-81
2021/06/26 07:50:50;;;;;;;1.80;1.70;;;;;;;25.66;46.04;99578.38;5055239;28;20244;-82
2021/06/26 07:53:18;;;;;;;2.03;1.92;;;;;;;25.66;45.89;99581.91;5021374;28;20279;-84
2021/06/26 07:55:51;;;;;;;1.90;1.80;;;;;;;25.71;45.50;99576.25;5020962;28;20252;-81
2021/06/26 07:58:19;;;;;;;1.90;1.80;;;;;;;25.66;45.91;99578.38;5021076;28;20227;-80
2021/06/26 08:00:47;;;;;;;1.70;1.60;;;;;;;25.90;45.08;99581.44;5036848;28;20312;-83
2021/06/26 08:03:15;;;;;;;2.00;1.90;;;;;;;25.99;45.23;99573.25;5036823;28;20237;-80
2021/06/26 08:05:43;;;;;;;2.20;2.00;;;;;;;25.73;45.91;99565.78;5020401;28;20248;-83
2021/06/26 08:08:10;;;;;;;2.25;2.05;;;;;;;26.26;44.82;99575.69;5020189;28;20230;-81
2021/06/26 08:10:37;;;;;;;1.80;1.70;;;;;;;26.03;45.47;99560.47;5053148;28;20653;-81
2021/06/26 08:13:04;;;;;;;2.00;1.90;;;;;;;25.63;46.87;99574.31;5053086;28;20341;-81
2021/06/26 08:15:36;;;;;;;2.15;2.05;;;;;;;25.74;47.13;99570.16;5053346;28;20231;-83
2021/06/26 08:18:07;;;;;;;1.90;1.80;;;;;;;25.98;46.30;99574.38;5020399;28;20238;-84
2021/06/26 08:20:34;;;;;;;1.58;1.48;;;;;;;25.70;44.93;99560.13;5052768;28;20248;-84
2021/06/26 08:23:02;;;;;;;1.75;1.63;;;;;;;26.21;44.67;99565.69;5057913;28;20233;-81
2021/06/26 08:25:29;;;;;;;1.50;1.42;;;;;;;26.78;43.27;99570.09;5041026;28;20367;-80
2021/06/26 08:27:57;;;;;;;2.05;1.65;;;;;;;26.56;43.50;99557.38;5024794;28;20229;-80
2021/06/26 08:30:24;;;;;;;1.80;1.70;;;;;;;26.49;43.56;99582.59;5057117;28;20236;-77
2021/06/26 08:32:52;;;;;;;2.20;2.00;;;;;;;26.14;45.09;99564.50;5040411;28;20746;-81
2021/06/26 08:35:19;;;;;;;1.90;1.80;;;;;;;26.30;45.13;99571.16;5057026;28;20673;-79
2021/06/26 08:37:47;;;;;;;2.00;1.90;;;;;;;26.03;45.94;99546.75;5056901;28;20229;-84
2021/06/26 08:40:15;;;;;;;2.03;1.92;;;;;;;26.01;46.59;99565.47;5040081;28;20233;-80
2021/06/26 08:42:42;;;;;;;1.40;1.33;;;;;;;25.38;44.06;99551.16;5056939;28;20265;-85
2021/06/26 08:45:11;;;;;;;1.30;1.20;;;;;;;25.35;42.92;99560.03;5056540;28;20222;-80
2021/06/26 08:47:39;;;;;;;1.10;1.10;;;;;;;25.42;44.74;99565.06;5056748;28;20656;-78
2021/06/26 08:50:06;;;;;;;1.20;1.20;;;;;;;25.38;44.53;99553.91;5039827;28;20253;-84
2021/06/26 08:52:34;;;;;;;1.48;1.38;;;;;;;25.56;45.31;99554.00;5039959;28;20308;-80
2021/06/26 08:55:00;;;;;;;2.72;1.58;;;;;;;25.64;45.02;99553.19;5040111;28;20225;-82
2021/06/26 08:57:35;;;;;;;1.58;1.48;;;;;;;25.77;45.25;99554.97;5040372;28;20231;-80
2021/06/26 09:00:09;;;;;;;1.40;1.30;;;;;;;26.11;44.30;99545.94;5038963;28;20282;-82
2021/06/26 09:02:36;;;;;;;1.52;1.42;;;;;;;26.08;43.88;99549.34;5039022;28;20546;-79
2021/06/26 09:05:04;;;;;;;1.63;1.52;;;;;;;26.16;44.71;99551.28;5038954;28;20239;-82
2021/06/26 09:07:33;;;;;;;1.65;1.55;;;;;;;26.08;44.29;99541.09;5055654;28;20665;-80
2021/06/26 09:10:15;;;;;;;1.67;1.58;;;;;;;26.53;43.86;99552.53;5023402;28;20595;-84
2021/06/26 09:12:47;;;;;;;1.60;1.50;;;;;;;26.59;42.98;99540.25;5056095;28;20238;-80
2021/06/26 09:15:28;;;;;;;1.90;1.50;;;;;;;27.23;42.45;99549.22;5024253;28;20259;-81
2021/06/26 09:17:56;;;;;;;2.92;1.58;;;;;;;26.99;41.65;99546.25;5040169;28;20297;-80
2021/06/26 09:20:38;;;;;;;1.35;1.10;;;;;;;27.08;40.55;99545.09;5039969;28;20244;-79
2021/06/26 09:23:22;;;;;;;1.90;1.42;;;;;;;27.16;41.06;99548.94;5056868;28;20263;-79
2021/06/26 09:25:51;;;;;;;2.03;1.70;;;;;;;27.40;39.87;99540.06;5040756;28;20646;-80
2021/06/26 09:28:25;;;;;;;1.70;1.60;;;;;;;27.76;39.32;99556.88;5039787;28;20233;-81
2021/06/26 09:30:53;;;;;;;1.80;1.70;;;;;;;28.45;39.34;99556.28;5039716;28;20232;-79
2021/06/26 09:33:24;;;;;;;1.60;1.50;;;;;;;28.79;37.43;99544.09;5039363;28;20307;-81
2021/06/26 09:36:10;;;;;;;1.73;1.63;;;;;;;28.08;39.27;99562.78;5056498;28;20685;-82
2021/06/26 09:38:55;;;;;;;2.22;2.10;;;;;;;27.56;41.03;99568.66;5023242;28;20232;-78
2021/06/26 09:41:22;;;;;;;1.98;1.88;;;;;;;27.43;41.15;99558.69;5039803;28;20237;-83
2021/06/26 09:43:48;;;;;;;2.00;1.90;;;;;;;27.20;40.72;99560.09;5057306;28;20236;-81
2021/06/26 09:46:16;;;;;;;2.15;1.98;;;;;;;27.55;39.80;99562.34;5039498;28;20579;-81
2021/06/26 09:48:48;;;;;;;2.33;2.13;;;;;;;27.29;40.59;99553.41;5039783;28;20716;-82
2021/06/26 09:51:24;;;;;;;2.15;2.05;;;;;;;27.49;41.03;99571.09;5057294;28;20543;-82
2021/06/26 09:53:57;;;;;;;2.28;2.17;;;;;;;27.92;39.71;99546.84;5039713;28;20265;-79
2021/06/26 09:56:43;;;;;;;2.60;2.17;;;;;;;28.02;38.93;99545.63;5055666;28;20636;-83
2021/06/26 09:59:11;;;;;;;2.58;1.90;;;;;;;27.97;39.13;99538.38;5056075;28;20227;-79
2021/06/26 10:01:42;;;;;;;2.45;2.20;;;;;;;27.93;38.95;99534.69;5039389;28;20249;-80
2021/06/26 10:04:14;;;;;;;2.38;2.20;;;;;;;27.58;39.86;99541.59;5055593;28;20507;-79
2021/06/26 10:06:42;;;;;;;2.33;2.15;;;;;;;27.66;40.03;99556.44;5039364;28;20225;-84
2021/06/26 10:09:10;;;;;;;2.42;2.30;;;;;;;28.01;39.16;99547.59;5038756;28;20312;-79
2021/06/26 10:11:39;;;;;;;2.60;2.40;;;;;;;27.74;40.40;99534.38;5036582;28;20233;-80
2021/06/26 10:14:08;;;;;;;2.72;2.53;;;;;;;27.65;41.03;99552.09;5037052;28;20225;-79
2021/06/26 10:16:36;;;;;;;2.15;2.05;;;;;;;27.32;40.19;99550.00;5038027;28;20221;-80
2021/06/26 10:19:05;;;;;;;2.10;2.00;;;;;;;27.28;40.23;99543.53;5038663;28;20280;-82
2021/06/26 10:21:33;;;;;;;2.53;2.05;;;;;;;27.30;40.53;99543.19;5038513;28;20279;-80
2021/06/26 10:24:02;;;;;;;2.22;2.03;;;;;;;27.58;39.42;99545.16;5038574;28;20229;-80
2021/06/26 10:26:39;;;;;;;2.10;2.00;;;;;;;28.29;38.21;99550.59;5037961;28;20237;-78
2021/06/26 10:29:06;;;;;;;2.72;2.15;;;;;;;28.46;37.57;99538.63;5054860;28;20227;-81
2021/06/26 10:31:32;;;;;;;2.40;2.20;;;;;;;28.63;38.54;99541.19;5038342;28;20298;-81
2021/06/26 10:34:11;;;;;;;3.03;2.83;;;;;;;28.81;38.25;99536.31;5038054;28;20225;-79
2021/06/26 10:36:39;;;;;;;2.40;2.30;;;;;;;28.65;37.99;99530.59;5037978;28;20530;-82
2021/06/26 10:39:24;;;;;;;2.70;2.25;;;;;;;28.40;38.73;99528.94;5021749;28;20233;-80
2021/06/26 10:42:07;;;;;;;2.92;2.65;;;;;;;28.32;39.17;99538.91;5038425;28;20310;-84
2021/06/26 10:44:50;;;;;;;2.65;2.45;;;;;;;28.48;38.78;99522.53;5054096;28;20659;-79
2021/06/26 10:47:38;;;;;;;2.40;2.20;;;;;;;28.83;38.85;99521.03;5038376;28;20226;-82
2021/06/26 10:50:11;;;;;;;2.30;2.10;;;;;;;28.87;37.60;99519.19;5054346;28;20239;-85
2021/06/26 10:52:48;;;;;;;2.17;2.08;;;;;;;29.05;36.70;99519.78;5038276;28;20225;-80
2021/06/26 10:55:35;;;;;;;2.15;2.00;;;;;;;29.03;36.71;99507.47;5054343;28;20236;-82
2021/06/26 10:58:06;;;;;;;2.08;1.98;;;;;;;29.14;35.92;99506.66;5037733;28;20232;-82
2021/06/26 11:00:40;;;;;;;2.53;2.00;;;;;;;28.99;36.44;99517.59;5037986;28;20225;-84
2021/06/26 11:03:23;;;;;;;2.58;2.38;;;;;;;29.15;37.05;99513.81;5037893;28;20280;-81
2021/06/26 11:05:50;;;;;;;2.25;2.13;;;;;;;29.00;36.96;99492.44;5038192;28;20293;-83
2021/06/26 11:08:19;;;;;;;2.30;2.20;;;;;;;29.73;36.26;99500.59;5036979;28;20315;-84
2021/06/26 11:10:53;;;;;;;2.20;2.10;;;;;;;30.21;34.29;99494.13;5054537;28;20256;-81
2021/06/26 11:13:21;;;;;;;2.22;2.03;;;;;;;30.64;33.43;99500.81;5055266;28;20229;-82
2021/06/26 11:15:48;;;;;;;2.30;2.20;;;;;;;30.52;33.18;99493.41;5054564;28;20648;-83
2021/06/26 11:18:16;;;;;;;2.20;2.10;;;;;;;30.02;33.91;99489.28;5037032;28;20225;-79
2021/06/26 11:20:44;;;;;;;2.40;2.20;;;;;;;29.33;36.18;99486.00;5037357;28;20232;-83
2021/06/26 11:23:16;;;;;;;2.10;2.00;;;;;;;29.49;34.78;99473.88;5037221;28;20633;-82
2021/06/26 11:25:43;;;;;;;2.35;2.20;;;;;;;29.40;34.99;99475.16;5037175;28;20233;-81
2021/06/26 11:28:12;;;;;;;2.00;1.90;;;;;;;29.83;34.62;99478.03;5020773;28;20312;-79
2021/06/26 11:30:42;;;;;;;1.85;1.75;;;;;;;30.19;33.95;99488.13;5053882;28;20235;-79
2021/06/26 11:33:10;;;;;;;2.55;2.10;;;;;;;30.19;34.43;99488.13;5037522;28;20565;-84
2021/06/26 11:35:42;;;;;;;2.15;1.95;;;;;;;29.99;34.65;99462.38;5020715;28;20320;-80
2021/06/26 11:38:17;;;;;;;2.28;2.10;;;;;;;29.79;34.59;99468.84;5053344;28;20534;-83
2021/06/26 11:40:44;;;;;;;2.20;2.10;;;;;;;29.27;34.53;99477.13;5036964;28;20530;-80